• LFSB

    METAR de LFSB (émis le 2022/09/25 20:30 UTC):
    LFSB 252030Z AUTO 31004KT 9999 -RA SCT016/// OVC028/// ///CB 13/11 Q1014 TEMPO SHRA BKN012

    TAF de LFSB (émis le 2022/09/25 18:24 UTC):
    LFSB 251700Z 2518/2618 25004KT 9999 FEW030 BKN040 TEMPO 2518/2524 -SHRA FEW030TCU PROB40 TEMPO 2518/2522 SHRA FEW030CB PROB30 TEMPO 2522/2524 BKN012 PROB40 TEMPO 2602/2608 BKN009 TEMPO 2610/2616 FEW035TCU TEMPO 2616/2618 RA
  • LFSX

    METAR de LFSX (émis le 2022/09/25 20:30 UTC):
    LFSX 252030Z AUTO 29004KT CAVOK 11/11 Q1014

    TAF de LFSX (émis le 2022/09/23 13:39 UTC):
    LFSX 231332Z 2313/2409 CNL
  • LFSD

    METAR de LFSD (émis le 2022/09/25 20:30 UTC):
    LFSD 252030Z AUTO 31004KT CAVOK 13/11 Q1015

    TAF de LFSD (émis le 2015/06/01 00:11 UTC):
    LFSD 010600Z 0100/0124 CNL
  • LFGJ

    METAR de LFGJ (émis le 2022/09/25 20:30 UTC):
    LFGJ 252030Z AUTO 02005KT 9999 BKN038 BKN047 BKN062 13/10 Q1015

    TAF COURT de LFGJ
    (émis le 2022/09/25 17:06 UTC):
    TAF AMD TAF AMD LFGJ 251703Z 2517/2524 CNL
  • LFJL

    METAR de LFJL (émis le 2022/09/25 20:30 UTC):
    LFJL 252030Z AUTO 18007KT CAVOK 10/09 Q1014 NOSIG

    TAF de LFJL (émis le 2022/09/25 18:24 UTC):
    LFJL 251700Z 2518/2618 VRB03KT 9999 BKN040 PROB40 TEMPO 2600/2605 3000 BCFG BECMG 2605/2608 22010KT -RA TEMPO 2610/2618 22015G25KT PROB40 TEMPO 2615/2618 3000 RA
  • LFST

    METAR de LFST (émis le 2022/09/25 20:30 UTC):
    LFST 252030Z AUTO VRB02KT 9999 FEW032 BKN046 BKN110 12/10 Q1014 NOSIG

    TAF de LFST (émis le 2022/09/25 18:24 UTC):
    LFST 251700Z 2518/2618 31007KT 9999 BKN045 TEMPO 2518/2521 -SHRA FEW025TCU TEMPO 2602/2608 1500 BCFG BKN004 PROB30 TEMPO 2603/2607 0400 FG VV/// BECMG 2608/2610 21010KT PROB40 TEMPO 2610/2616 22012G22KT -SHRA FEW030TCU TEMPO 2616/2618 24012G25KT 4000 RA